Time;durP1;ratioP1;P1;durP2;ratioP2;P2;SDS_P1;SDS_P2;PMS_P1;PMS_P2;Temp;Humidity;BMP_temperature;BMP_pressure;BME280_temperature;BME280_humidity;BME280_pressure;Samples;Min_cycle;Max_cycle;Signal;HPM_P1;HPM_P2
2021/12/13 00:01:31;;;;;;;10.13;6.90;;;;;;;;;;4860080;29;20380;-67
2021/12/13 00:04:16;;;;;;;11.00;6.07;;;;;;;;;;4855861;29;20589;-68
2021/12/13 00:06:47;;;;;;;14.20;7.03;;;;;;;;;;4842485;29;20064;-67
2021/12/13 00:09:17;;;;;;;9.30;6.13;;;;;;;;;;4841471;29;20077;-66
2021/12/13 00:11:50;;;;;;;11.60;6.28;;;;;;;;;;4859887;29;20041;-66
2021/12/13 00:14:23;;;;;;;9.90;6.68;;;;;;;;;;4860338;29;20047;-67
2021/12/13 00:17:05;;;;;;;9.93;6.93;;;;;;;;;;4859696;29;20635;-71
2021/12/13 00:19:38;;;;;;;11.93;7.03;;;;;;;;;;4860440;29;20077;-66
2021/12/13 00:22:14;;;;;;;9.82;6.05;;;;;;;;;;4852416;29;20494;-67
2021/12/13 00:24:44;;;;;;;11.32;6.22;;;;;;;;;;4840759;29;20053;-69
2021/12/13 00:27:19;;;;;;;10.45;6.75;;;;;;;;;;4843352;29;20030;-68
2021/12/13 00:30:16;;;;;;;12.07;6.10;;;;;;;;;;4875774;29;20035;-67
2021/12/13 00:33:02;;;;;;;10.15;5.70;;;;;;;;;;4860421;29;20045;-66
2021/12/13 00:35:37;;;;;;;9.88;5.35;;;;;;;;;;4855611;29;20076;-70
2021/12/13 00:38:06;;;;;;;8.20;4.88;;;;;;;;;;4859605;29;20442;-66
2021/12/13 00:40:35;;;;;;;8.02;4.90;;;;;;;;;;4859472;29;20036;-68
2021/12/13 00:43:08;;;;;;;9.50;5.40;;;;;;;;;;4857829;29;20048;-66
2021/12/13 00:45:37;;;;;;;9.90;6.30;;;;;;;;;;4859911;29;20488;-68
2021/12/13 00:48:06;;;;;;;10.07;5.75;;;;;;;;;;4860369;29;20488;-66
2021/12/13 00:50:39;;;;;;;9.25;5.65;;;;;;;;;;4859678;29;20033;-66
2021/12/13 00:53:05;;;;;;;10.30;5.30;;;;;;;;;;4860210;29;20440;-65
2021/12/13 00:55:33;;;;;;;11.38;5.68;;;;;;;;;;4859214;29;20038;-65
2021/12/13 00:58:10;;;;;;;9.30;6.18;;;;;;;;;;4860042;29;20041;-66
2021/12/13 01:00:39;;;;;;;11.10;6.00;;;;;;;;;;4859962;29;20041;-66
2021/12/13 01:03:16;;;;;;;11.25;6.20;;;;;;;;;;4858539;29;20057;-64
2021/12/13 01:06:04;;;;;;;11.57;5.95;;;;;;;;;;4859612;29;20041;-66
2021/12/13 01:09:40;;;;;;;9.13;5.55;;;;;;;;;;4854086;29;20565;-73
2021/12/13 01:12:12;;;;;;;9.55;5.72;;;;;;;;;;4858172;29;20037;-69
2021/12/13 01:14:57;;;;;;;10.70;6.88;;;;;;;;;;4858832;29;20045;-66
2021/12/13 01:17:54;;;;;;;14.10;7.18;;;;;;;;;;4858761;29;20041;-67
2021/12/13 01:20:44;;;;;;;10.18;6.10;;;;;;;;;;4857815;29;20045;-65
2021/12/13 01:23:27;;;;;;;10.52;5.70;;;;;;;;;;4857799;29;20405;-67
2021/12/13 01:26:03;;;;;;;9.07;4.90;;;;;;;;;;4858122;29;20663;-65
2021/12/13 01:28:40;;;;;;;7.60;5.32;;;;;;;;;;4857899;29;20041;-68
2021/12/13 01:31:10;;;;;;;7.05;5.13;;;;;;;;;;4858560;29;20118;-67
2021/12/13 01:33:40;;;;;;;5.60;3.95;;;;;;;;;;4858416;29;20482;-67
2021/12/13 01:36:09;;;;;;;6.93;4.30;;;;;;;;;;4857962;29;20165;-67
2021/12/13 01:38:47;;;;;;;7.03;4.20;;;;;;;;;;4858946;29;20063;-68
2021/12/13 01:41:25;;;;;;;6.05;4.25;;;;;;;;;;4857747;29;20041;-66
2021/12/13 01:43:58;;;;;;;7.93;4.78;;;;;;;;;;4857414;29;20074;-65
2021/12/13 01:46:25;;;;;;;7.57;4.95;;;;;;;;;;4858639;29;20117;-65
2021/12/13 01:48:52;;;;;;;6.70;4.63;;;;;;;;;;4857945;29;20049;-68
2021/12/13 01:51:26;;;;;;;7.50;4.32;;;;;;;;;;4858436;29;20504;-66
2021/12/13 01:54:07;;;;;;;6.72;4.38;;;;;;;;;;4859302;29;20033;-66
2021/12/13 01:56:53;;;;;;;5.78;3.78;;;;;;;;;;4861180;29;20034;-65
2021/12/13 02:02:11;;;;;;;11.70;3.67;;;;;;;;;;4861127;29;20057;-68
2021/12/13 02:04:37;;;;;;;3.65;2.47;;;;;;;;;;4861355;29;20125;-69
2021/12/13 02:07:04;;;;;;;3.58;2.53;;;;;;;;;;4861597;29;20033;-68
2021/12/13 02:09:40;;;;;;;4.82;2.72;;;;;;;;;;4862152;29;20517;-67
2021/12/13 02:12:15;;;;;;;3.80;2.70;;;;;;;;;;4861675;29;20044;-68
2021/12/13 02:17:45;;;;;;;2.75;2.20;;;;;;;;;;4861577;29;20041;-68
2021/12/13 02:20:17;;;;;;;3.65;2.17;;;;;;;;;;4861619;29;20033;-71
2021/12/13 02:22:54;;;;;;;2.78;1.85;;;;;;;;;;4861290;29;20041;-67
2021/12/13 02:25:46;;;;;;;4.15;2.38;;;;;;;;;;4861109;29;20069;-68
2021/12/13 02:28:21;;;;;;;3.65;2.28;;;;;;;;;;4855377;29;20106;-67
2021/12/13 02:31:06;;;;;;;6.25;2.70;;;;;;;;;;4861302;29;20037;-67
2021/12/13 02:33:34;;;;;;;2.88;2.03;;;;;;;;;;4860959;29;20548;-66
2021/12/13 02:36:07;;;;;;;3.15;1.92;;;;;;;;;;4861108;29;20037;-66
2021/12/13 02:38:34;;;;;;;4.47;2.03;;;;;;;;;;4860765;29;20040;-67
2021/12/13 02:41:00;;;;;;;4.00;2.00;;;;;;;;;;4861424;29;20273;-71
2021/12/13 02:43:32;;;;;;;5.25;2.83;;;;;;;;;;4861158;29;20108;-67
2021/12/13 02:45:59;;;;;;;6.20;3.22;;;;;;;;;;4860816;29;20029;-67
2021/12/13 02:48:36;;;;;;;3.15;1.98;;;;;;;;;;4861692;29;20100;-67
2021/12/13 02:51:28;;;;;;;4.40;1.77;;;;;;;;;;4860245;29;20041;-67
2021/12/13 02:54:18;;;;;;;2.60;1.58;;;;;;;;;;4860724;29;20041;-72
2021/12/13 02:56:53;;;;;;;2.30;1.38;;;;;;;;;;4860467;29;20030;-69
2021/12/13 02:59:22;;;;;;;2.42;1.50;;;;;;;;;;4861456;29;20125;-69
2021/12/13 03:01:55;;;;;;;2.15;1.30;;;;;;;;;;4861229;29;20038;-67
2021/12/13 03:04:23;;;;;;;2.70;1.70;;;;;;;;;;4860889;29;20171;-73
2021/12/13 03:07:24;;;;;;;2.75;1.73;;;;;;;;;;4859644;29;20049;-66
2021/12/13 03:09:53;;;;;;;2.80;1.50;;;;;;;;;;4856434;29;20536;-66
2021/12/13 03:12:22;;;;;;;1.88;1.27;;;;;;;;;;4860739;29;20049;-66
2021/12/13 03:14:56;;;;;;;4.07;1.40;;;;;;;;;;4860361;29;20042;-66
2021/12/13 03:17:28;;;;;;;1.80;1.20;;;;;;;;;;4860937;29;20051;-67
2021/12/13 03:20:15;;;;;;;1.70;1.40;;;;;;;;;;4861268;29;20105;-68
2021/12/13 03:23:07;;;;;;;5.47;1.63;;;;;;;;;;4862285;29;20041;-66
2021/12/13 03:25:58;;;;;;;2.70;1.55;;;;;;;;;;4825082;29;20050;-65
2021/12/13 03:28:36;;;;;;;2.58;1.42;;;;;;;;;;4842429;29;20042;-66
2021/12/13 03:31:06;;;;;;;2.25;1.48;;;;;;;;;;4843210;29;20058;-67
2021/12/13 03:33:54;;;;;;;1.70;1.30;;;;;;;;;;4841166;29;20427;-66
2021/12/13 03:36:47;;;;;;;2.67;1.50;;;;;;;;;;4842358;29;20532;-68
2021/12/13 03:39:25;;;;;;;4.93;1.30;;;;;;;;;;4843012;29;20033;-66
2021/12/13 03:41:54;;;;;;;2.17;1.40;;;;;;;;;;4842789;29;20040;-67
2021/12/13 03:44:27;;;;;;;2.63;1.40;;;;;;;;;;4842798;29;20029;-67
2021/12/13 03:46:59;;;;;;;2.45;1.33;;;;;;;;;;4845266;29;20427;-67
2021/12/13 03:49:25;;;;;;;1.98;1.45;;;;;;;;;;4861545;29;20068;-66
2021/12/13 03:51:55;;;;;;;2.65;1.52;;;;;;;;;;4860750;29;20452;-67
2021/12/13 03:54:26;;;;;;;2.15;1.50;;;;;;;;;;4861466;29;20132;-67
2021/12/13 03:56:54;;;;;;;2.08;1.42;;;;;;;;;;4861920;29;20485;-67
2021/12/13 03:59:23;;;;;;;2.30;1.65;;;;;;;;;;4861306;29;20045;-67
2021/12/13 04:01:56;;;;;;;2.67;1.52;;;;;;;;;;4861353;29;20041;-67
2021/12/13 04:04:32;;;;;;;2.17;1.60;;;;;;;;;;4860716;29;20034;-69
2021/12/13 04:07:07;;;;;;;3.03;1.88;;;;;;;;;;4860654;29;20042;-66
2021/12/13 04:09:33;;;;;;;3.85;1.70;;;;;;;;;;4861413;29;20045;-66
2021/12/13 04:12:03;;;;;;;4.97;2.22;;;;;;;;;;4860799;29;20407;-69
2021/12/13 04:14:35;;;;;;;4.03;1.85;;;;;;;;;;4860563;29;20057;-67
2021/12/13 04:17:20;;;;;;;4.20;2.23;;;;;;;;;;4860203;29;20454;-67
2021/12/13 04:19:52;;;;;;;2.65;1.50;;;;;;;;;;4860904;29;20485;-67
2021/12/13 04:22:26;;;;;;;4.00;1.50;;;;;;;;;;4861000;29;20034;-66
2021/12/13 04:24:56;;;;;;;1.75;1.35;;;;;;;;;;4860669;29;20393;-67
2021/12/13 04:27:28;;;;;;;3.10;2.10;;;;;;;;;;4860841;29;20078;-69
2021/12/13 04:30:17;;;;;;;3.13;1.85;;;;;;;;;;4860016;29;20042;-66
2021/12/13 04:32:48;;;;;;;3.20;1.70;;;;;;;;;;4860976;29;20093;-66
2021/12/13 04:35:15;;;;;;;2.47;1.83;;;;;;;;;;4859942;29;20044;-68
2021/12/13 04:37:46;;;;;;;2.90;2.00;;;;;;;;;;4859867;29;20493;-67
2021/12/13 04:40:18;;;;;;;3.05;1.90;;;;;;;;;;4859901;29;20382;-67
2021/12/13 04:42:47;;;;;;;2.38;1.70;;;;;;;;;;4861063;29;20097;-67
2021/12/13 04:45:23;;;;;;;2.33;1.63;;;;;;;;;;4860373;29;20405;-68
2021/12/13 04:48:14;;;;;;;3.55;2.45;;;;;;;;;;4860675;29;20389;-69
2021/12/13 04:50:54;;;;;;;5.95;2.80;;;;;;;;;;4860713;29;20041;-74
2021/12/13 04:53:47;;;;;;;4.35;2.95;;;;;;;;;;4859759;29;20128;-67
2021/12/13 04:56:21;;;;;;;4.97;2.53;;;;;;;;;;4852586;29;20397;-69
2021/12/13 04:58:51;;;;;;;3.00;1.98;;;;;;;;;;4859409;29;20038;-66
2021/12/13 05:01:18;;;;;;;6.10;2.40;;;;;;;;;;4854475;29;20034;-67
2021/12/13 05:03:48;;;;;;;2.88;1.88;;;;;;;;;;4840575;29;20050;-67
2021/12/13 05:06:19;;;;;;;2.30;1.80;;;;;;;;;;4840511;29;20034;-67
2021/12/13 05:08:51;;;;;;;3.90;2.58;;;;;;;;;;4840543;29;20048;-67
2021/12/13 05:11:18;;;;;;;4.72;2.83;;;;;;;;;;4840767;29;20045;-66
2021/12/13 05:13:53;;;;;;;4.55;2.70;;;;;;;;;;4841485;29;20857;-67
2021/12/13 05:16:47;;;;;;;3.80;2.72;;;;;;;;;;4845498;29;20117;-67
2021/12/13 05:19:16;;;;;;;3.97;2.33;;;;;;;;;;4856803;29;20514;-67
2021/12/13 05:21:50;;;;;;;3.90;2.40;;;;;;;;;;4859127;29;20397;-71
2021/12/13 05:24:21;;;;;;;4.47;2.80;;;;;;;;;;4859674;29;20072;-72
2021/12/13 05:27:12;;;;;;;4.85;2.60;;;;;;;;;;4859740;29;20497;-70
2021/12/13 05:29:45;;;;;;;3.70;2.30;;;;;;;;;;4858579;29;20112;-70
2021/12/13 05:32:39;;;;;;;4.28;2.58;;;;;;;;;;4854928;29;20177;-71
2021/12/13 05:35:33;;;;;;;4.68;3.05;;;;;;;;;;4844954;29;20069;-73
2021/12/13 05:38:03;;;;;;;4.57;2.70;;;;;;;;;;4840381;29;20046;-72
2021/12/13 05:40:35;;;;;;;4.28;2.45;;;;;;;;;;4840890;29;20038;-72
2021/12/13 05:43:12;;;;;;;4.10;2.60;;;;;;;;;;4840118;29;20094;-70
2021/12/13 05:45:47;;;;;;;4.25;2.60;;;;;;;;;;4839943;29;20117;-70
2021/12/13 05:48:17;;;;;;;4.22;2.70;;;;;;;;;;4839778;29;20044;-70
2021/12/13 05:50:54;;;;;;;4.45;3.00;;;;;;;;;;4840421;29;20041;-68
2021/12/13 05:53:43;;;;;;;4.45;3.10;;;;;;;;;;4840464;29;20038;-70
2021/12/13 05:56:15;;;;;;;6.25;2.80;;;;;;;;;;4839311;29;20405;-69
2021/12/13 05:58:45;;;;;;;5.97;3.40;;;;;;;;;;4840165;29;20407;-69
2021/12/13 06:01:41;;;;;;;4.78;2.97;;;;;;;;;;4839109;29;20042;-70
2021/12/13 06:04:07;;;;;;;6.03;3.60;;;;;;;;;;4840512;29;20072;-68
2021/12/13 06:06:41;;;;;;;3.17;2.10;;;;;;;;;;4839026;29;20046;-70
2021/12/13 06:09:07;;;;;;;6.70;3.50;;;;;;;;;;4838614;29;20493;-70
2021/12/13 06:11:34;;;;;;;3.92;2.63;;;;;;;;;;4839877;29;20026;-70
2021/12/13 06:14:13;;;;;;;4.30;3.03;;;;;;;;;;4839812;29;20148;-70
2021/12/13 06:16:49;;;;;;;5.63;3.60;;;;;;;;;;4840536;29;20034;-70
2021/12/13 06:19:42;;;;;;;6.35;3.97;;;;;;;;;;4840536;29;20049;-69
2021/12/13 06:22:15;;;;;;;5.70;3.55;;;;;;;;;;4840376;29;20093;-69
2021/12/13 06:24:45;;;;;;;5.10;2.90;;;;;;;;;;4840185;29;20136;-69
2021/12/13 06:27:27;;;;;;;4.65;3.13;;;;;;;;;;4840345;29;20103;-69
2021/12/13 06:29:59;;;;;;;3.92;2.85;;;;;;;;;;4839889;29;20038;-70
2021/12/13 06:32:37;;;;;;;3.70;2.97;;;;;;;;;;4839693;29;20045;-69
2021/12/13 06:35:50;;;;;;;3.80;2.50;;;;;;;;;;4839370;29;20046;-69
2021/12/13 06:38:18;;;;;;;4.78;2.95;;;;;;;;;;4801232;29;20046;-70
2021/12/13 06:41:03;;;;;;;5.82;3.15;;;;;;;;;;4836810;29;20113;-70
2021/12/13 06:44:01;;;;;;;4.88;2.90;;;;;;;;;;4843420;29;20038;-69
2021/12/13 06:46:27;;;;;;;4.78;2.63;;;;;;;;;;4809859;29;20104;-69
2021/12/13 06:48:54;;;;;;;5.13;2.70;;;;;;;;;;4843917;29;20030;-69
2021/12/13 06:51:43;;;;;;;4.78;3.38;;;;;;;;;;4843794;29;20034;-70
2021/12/13 06:54:31;;;;;;;4.25;2.50;;;;;;;;;;4843596;29;20081;-69
2021/12/13 06:57:05;;;;;;;9.77;3.22;;;;;;;;;;4843480;29;20050;-72
2021/12/13 06:59:34;;;;;;;5.03;2.55;;;;;;;;;;4842505;29;20033;-70
2021/12/13 07:02:11;;;;;;;4.40;2.70;;;;;;;;;;4842807;29;20054;-70
2021/12/13 07:04:59;;;;;;;9.05;2.72;;;;;;;;;;4843345;29;20442;-69
2021/12/13 07:07:36;;;;;;;4.32;2.90;;;;;;;;;;4833243;29;20053;-69
2021/12/13 07:10:16;;;;;;;7.47;3.33;;;;;;;;;;4842502;29;20534;-70
2021/12/13 07:12:49;;;;;;;9.88;4.10;;;;;;;;;;4842900;29;20045;-71
2021/12/13 07:15:24;;;;;;;15.80;6.20;;;;;;;;;;4841795;29;20046;-74
2021/12/13 07:18:07;;;;;;;10.40;3.70;;;;;;;;;;4842559;29;20133;-71
2021/12/13 07:20:47;;;;;;;4.32;2.60;;;;;;;;;;4842528;29;20038;-71
2021/12/13 07:23:14;;;;;;;5.47;2.70;;;;;;;;;;4843376;29;20599;-77
2021/12/13 07:25:43;;;;;;;3.75;2.75;;;;;;;;;;4842360;29;20030;-76
2021/12/13 07:28:10;;;;;;;7.93;4.25;;;;;;;;;;4843115;29;20037;-72
2021/12/13 07:30:38;;;;;;;26.88;4.50;;;;;;;;;;4842473;29;20045;-74
2021/12/13 07:33:07;;;;;;;52.05;6.95;;;;;;;;;;4843044;29;20046;-73
2021/12/13 07:35:36;;;;;;;54.53;6.28;;;;;;;;;;4841960;29;20095;-69
2021/12/13 07:38:22;;;;;;;35.42;7.38;;;;;;;;;;4842192;29;20045;-71
2021/12/13 07:40:52;;;;;;;40.65;6.30;;;;;;;;;;4841883;29;20455;-71
2021/12/13 07:43:21;;;;;;;34.35;6.75;;;;;;;;;;4839277;29;20494;-70
2021/12/13 07:45:55;;;;;;;10.77;3.30;;;;;;;;;;4842251;29;20022;-70
2021/12/13 07:48:43;;;;;;;26.45;5.15;;;;;;;;;;4841978;29;20129;-70
2021/12/13 07:51:18;;;;;;;7.70;3.85;;;;;;;;;;4837426;29;20047;-69
2021/12/13 07:53:59;;;;;;;7.30;4.30;;;;;;;;;;4841975;29;20060;-70
2021/12/13 07:56:37;;;;;;;12.35;4.80;;;;;;;;;;4842672;29;20094;-68
2021/12/13 07:59:23;;;;;;;9.40;4.10;;;;;;;;;;4841592;29;20419;-70
2021/12/13 08:02:01;;;;;;;6.65;4.18;;;;;;;;;;4835444;29;20046;-69
2021/12/13 08:04:30;;;;;;;7.70;4.25;;;;;;;;;;4841626;29;20041;-69
2021/12/13 08:07:10;;;;;;;8.50;3.65;;;;;;;;;;4841034;29;20113;-70
2021/12/13 08:09:51;;;;;;;8.35;3.67;;;;;;;;;;4842482;29;20037;-70
2021/12/13 08:12:38;;;;;;;15.85;3.47;;;;;;;;;;4842281;29;20451;-70
2021/12/13 08:15:25;;;;;;;17.85;4.10;;;;;;;;;;4842128;29;20045;-74
2021/12/13 08:17:58;;;;;;;19.75;4.32;;;;;;;;;;4852855;29;20048;-69
2021/12/13 08:20:30;;;;;;;20.35;4.63;;;;;;;;;;4858174;29;20462;-68
2021/12/13 08:22:57;;;;;;;10.00;3.65;;;;;;;;;;4860033;29;20038;-70
2021/12/13 08:25:31;;;;;;;21.08;4.35;;;;;;;;;;4860268;29;20029;-70
2021/12/13 08:28:18;;;;;;;7.40;2.78;;;;;;;;;;4859003;29;20061;-69
2021/12/13 08:30:49;;;;;;;4.50;2.78;;;;;;;;;;4859310;29;20038;-69
2021/12/13 08:33:30;;;;;;;7.15;4.10;;;;;;;;;;4860009;29;20359;-69
2021/12/13 08:36:07;;;;;;;6.40;3.63;;;;;;;;;;4859955;29;20116;-69
2021/12/13 08:38:58;;;;;;;7.85;3.42;;;;;;;;;;4857098;29;20101;-71
2021/12/13 08:41:32;;;;;;;5.95;2.97;;;;;;;;;;4859576;29;20030;-71
2021/12/13 08:44:14;;;;;;;11.85;3.22;;;;;;;;;;4859376;29;20139;-71
2021/12/13 08:46:51;;;;;;;6.13;2.55;;;;;;;;;;4857737;29;20053;-70
2021/12/13 08:49:49;;;;;;;8.25;2.90;;;;;;;;;;4859563;29;20126;-72
2021/12/13 08:52:30;;;;;;;10.13;3.03;;;;;;;;;;4845962;29;20053;-72
2021/12/13 08:55:05;;;;;;;11.05;2.80;;;;;;;;;;4859550;29;20037;-72
2021/12/13 08:57:40;;;;;;;4.40;2.78;;;;;;;;;;4857573;29;20392;-70
2021/12/13 09:00:12;;;;;;;16.75;3.20;;;;;;;;;;4858112;29;20041;-70
2021/12/13 09:02:44;;;;;;;4.45;2.58;;;;;;;;;;4859111;29;20049;-70
2021/12/13 09:05:18;;;;;;;7.85;2.33;;;;;;;;;;4859414;29;20045;-69
2021/12/13 09:07:48;;;;;;;;;;;;;;;;;;4859990;29;20032;-68
2021/12/13 09:10:15;;;;;;;8.48;2.55;;;;;;;;;;4855160;29;19920;-69
2021/12/13 09:12:44;;;;;;;11.80;2.38;;;;;;;;;;4839938;29;20034;-69
2021/12/13 09:15:36;;;;;;;10.25;2.40;;;;;;;;;;4841117;29;20038;-71
2021/12/13 09:18:05;;;;;;;7.20;2.60;;;;;;;;;;4839631;29;20061;-67
2021/12/13 09:20:45;;;;;;;4.53;2.03;;;;;;;;;;4842609;29;20034;-70
2021/12/13 09:23:35;;;;;;;7.10;2.20;;;;;;;;;;4840703;29;20426;-69
2021/12/13 09:26:21;;;;;;;8.38;2.63;;;;;;;;;;4840388;29;20045;-72
2021/12/13 09:28:52;;;;;;;3.75;2.30;;;;;;;;;;4840082;29;20034;-68
2021/12/13 09:31:32;;;;;;;5.65;2.47;;;;;;;;;;4840815;29;20042;-69
2021/12/13 09:34:01;;;;;;;5.82;2.40;;;;;;;;;;4840518;29;20042;-70
2021/12/13 09:36:31;;;;;;;8.13;2.50;;;;;;;;;;4839775;29;20084;-68
2021/12/13 09:39:04;;;;;;;4.65;2.30;;;;;;;;;;4839422;29;20034;-70
2021/12/13 09:42:00;;;;;;;3.80;2.45;;;;;;;;;;4839475;29;20392;-70
2021/12/13 09:44:55;;;;;;;3.65;1.90;;;;;;;;;;4839632;29;20041;-72
2021/12/13 09:47:42;;;;;;;6.82;2.35;;;;;;;;;;4840290;29;20102;-70
2021/12/13 09:50:14;;;;;;;3.97;2.00;;;;;;;;;;4840414;29;20042;-66
2021/12/13 09:52:50;;;;;;;3.80;2.30;;;;;;;;;;4839550;29;20042;-68
2021/12/13 09:55:24;;;;;;;4.28;2.22;;;;;;;;;;4839552;29;20045;-68
2021/12/13 09:58:14;;;;;;;4.70;2.20;;;;;;;;;;4839329;29;20415;-68
2021/12/13 10:00:51;;;;;;;3.65;1.83;;;;;;;;;;4839680;29;20054;-67
2021/12/13 10:03:26;;;;;;;6.60;3.28;;;;;;;;;;4840558;29;20082;-68
2021/12/13 10:05:57;;;;;;;8.68;3.13;;;;;;;;;;4840700;29;20034;-67
2021/12/13 10:08:28;;;;;;;4.15;2.03;;;;;;;;;;4840274;29;20056;-73
2021/12/13 10:11:01;;;;;;;4.43;2.08;;;;;;;;;;4838022;29;20406;-68
2021/12/13 10:13:32;;;;;;;4.28;2.28;;;;;;;;;;4840084;29;20464;-74
2021/12/13 10:16:03;;;;;;;8.10;2.40;;;;;;;;;;4842213;29;20038;-70
2021/12/13 10:18:33;;;;;;;7.25;2.55;;;;;;;;;;4842804;29;20030;-72
2021/12/13 10:21:05;;;;;;;4.55;2.10;;;;;;;;;;4843358;29;20041;-68
2021/12/13 10:23:35;;;;;;;6.40;2.22;;;;;;;;;;4843467;29;20042;-70
2021/12/13 10:26:03;;;;;;;7.03;2.90;;;;;;;;;;4842432;29;20129;-70
2021/12/13 10:28:34;;;;;;;6.30;2.40;;;;;;;;;;4842432;29;20038;-72
2021/12/13 10:31:10;;;;;;;5.22;2.08;;;;;;;;;;4841848;29;20542;-71
2021/12/13 10:33:38;;;;;;;4.13;2.13;;;;;;;;;;4842886;29;20045;-71
2021/12/13 10:36:05;;;;;;;15.65;2.63;;;;;;;;;;4843351;29;20404;-69
2021/12/13 10:38:38;;;;;;;4.65;2.10;;;;;;;;;;4842975;29;20129;-69
2021/12/13 10:41:11;;;;;;;11.30;3.20;;;;;;;;;;4843137;29;20483;-66
2021/12/13 10:43:46;;;;;;;4.18;2.10;;;;;;;;;;4843833;29;20037;-70
2021/12/13 10:46:20;;;;;;;4.97;2.33;;;;;;;;;;4843577;29;20378;-67
2021/12/13 10:48:51;;;;;;;7.55;2.60;;;;;;;;;;4842597;29;20378;-71
2021/12/13 10:51:37;;;;;;;7.68;2.88;;;;;;;;;;4843234;29;20046;-70
2021/12/13 10:54:14;;;;;;;8.23;2.80;;;;;;;;;;4842330;29;20068;-70
2021/12/13 10:56:54;;;;;;;5.05;2.40;;;;;;;;;;4842256;29;20046;-74
2021/12/13 10:59:22;;;;;;;3.63;2.30;;;;;;;;;;4842403;29;20042;-74
2021/12/13 11:01:53;;;;;;;3.70;1.70;;;;;;;;;;4840329;29;20030;-73
2021/12/13 11:04:23;;;;;;;13.38;3.60;;;;;;;;;;4842109;29;20034;-72
2021/12/13 11:06:50;;;;;;;5.53;2.20;;;;;;;;;;4842635;29;20040;-72
2021/12/13 11:09:20;;;;;;;7.18;2.75;;;;;;;;;;4841155;29;20038;-71
2021/12/13 11:12:08;;;;;;;3.55;2.03;;;;;;;;;;4842720;29;20074;-70
2021/12/13 11:14:38;;;;;;;11.98;2.60;;;;;;;;;;4842388;29;20173;-68
2021/12/13 11:17:07;;;;;;;7.57;2.67;;;;;;;;;;4842910;29;20042;-73
2021/12/13 11:19:36;;;;;;;14.40;3.90;;;;;;;;;;4841432;29;20562;-71
2021/12/13 11:22:11;;;;;;;6.60;2.53;;;;;;;;;;4841761;29;20038;-73
2021/12/13 11:24:40;;;;;;;9.65;3.03;;;;;;;;;;4842266;29;20427;-72
2021/12/13 11:27:12;;;;;;;5.47;2.30;;;;;;;;;;4841759;29;20030;-71
2021/12/13 11:29:41;;;;;;;3.65;2.55;;;;;;;;;;4842508;29;20132;-71
2021/12/13 11:32:34;;;;;;;7.45;2.70;;;;;;;;;;4842635;29;20067;-71
2021/12/13 11:35:06;;;;;;;12.60;3.25;;;;;;;;;;4842970;29;20251;-74
2021/12/13 11:37:41;;;;;;;9.38;4.05;;;;;;;;;;4841658;29;20121;-72
2021/12/13 11:40:45;;;;;;;6.80;2.90;;;;;;;;;;4841951;29;20086;-71
2021/12/13 11:43:26;;;;;;;8.18;3.03;;;;;;;;;;4803738;29;20038;-73
2021/12/13 11:46:26;;;;;;;8.60;3.00;;;;;;;;;;4803916;29;20045;-75
2021/12/13 11:49:16;;;;;;;8.30;2.35;;;;;;;;;;4834668;29;20045;-72
2021/12/13 11:52:09;;;;;;;8.02;3.05;;;;;;;;;;4842780;29;20381;-75
2021/12/13 11:55:12;;;;;;;5.45;2.50;;;;;;;;;;4842276;29;20078;-78
2021/12/13 11:58:09;;;;;;;8.07;2.55;;;;;;;;;;4840916;29;20126;-70
2021/12/13 12:01:03;;;;;;;6.65;2.83;;;;;;;;;;4841436;29;20042;-75
2021/12/13 12:03:58;;;;;;;7.38;2.50;;;;;;;;;;4822377;29;20054;-76
2021/12/13 12:06:46;;;;;;;9.23;2.88;;;;;;;;;;4840564;29;20050;-76
2021/12/13 12:09:50;;;;;;;7.38;3.47;;;;;;;;;;4842497;29;20034;-74
2021/12/13 12:12:16;;;;;;;4.38;2.05;;;;;;;;;;4841721;29;20049;-73
2021/12/13 12:14:41;;;;;;;4.88;2.45;;;;;;;;;;4841977;29;20050;-72
2021/12/13 12:17:08;;;;;;;6.57;2.70;;;;;;;;;;4841699;29;20494;-70
2021/12/13 12:19:40;;;;;;;7.03;2.63;;;;;;;;;;4842122;29;20358;-72
2021/12/13 12:22:15;;;;;;;7.28;2.60;;;;;;;;;;4842064;29;20034;-70
2021/12/13 12:24:53;;;;;;;11.95;3.72;;;;;;;;;;4855446;29;20049;-70
2021/12/13 12:27:22;;;;;;;7.65;2.70;;;;;;;;;;4840973;29;20033;-72
2021/12/13 12:29:49;;;;;;;12.50;4.38;;;;;;;;;;4841178;29;20030;-71
2021/12/13 12:32:46;;;;;;;4.93;2.03;;;;;;;;;;4841696;29;20038;-70
2021/12/13 12:35:21;;;;;;;7.72;3.10;;;;;;;;;;4833209;29;20407;-68
2021/12/13 12:37:56;;;;;;;12.45;3.13;;;;;;;;;;4840793;29;20041;-73
2021/12/13 12:40:36;;;;;;;9.27;2.92;;;;;;;;;;4841672;29;20076;-76
2021/12/13 12:43:11;;;;;;;5.32;2.20;;;;;;;;;;4838647;29;20034;-74
2021/12/13 12:45:44;;;;;;;3.85;2.33;;;;;;;;;;4841095;29;20405;-72
2021/12/13 12:48:31;;;;;;;3.63;2.33;;;;;;;;;;4841095;29;20037;-69
2021/12/13 12:51:05;;;;;;;7.40;2.38;;;;;;;;;;4841799;29;20447;-68
2021/12/13 12:53:55;;;;;;;9.80;2.85;;;;;;;;;;4840774;29;20042;-69
2021/12/13 12:56:52;;;;;;;9.77;3.33;;;;;;;;;;4840285;29;20041;-69
2021/12/13 12:59:40;;;;;;;9.48;3.45;;;;;;;;;;4837002;29;20399;-67
2021/12/13 13:02:08;;;;;;;12.85;4.15;;;;;;;;;;4836536;29;20045;-74
2021/12/13 13:04:35;;;;;;;9.73;3.80;;;;;;;;;;4839358;29;20042;-73
2021/12/13 13:07:15;;;;;;;8.20;4.53;;;;;;;;;;4836846;29;20038;-70
2021/12/13 13:09:44;;;;;;;15.50;3.70;;;;;;;;;;4819013;29;20502;-74
2021/12/13 13:12:17;;;;;;;5.95;3.78;;;;;;;;;;4833203;29;20162;-74
2021/12/13 13:14:47;;;;;;;;;;;;;;;;;;4819229;29;20050;-74
2021/12/13 13:17:13;;;;;;;9.40;4.30;;;;;;;;;;4821830;29;19962;-70
2021/12/13 13:19:42;;;;;;;10.32;4.03;;;;;;;;;;4814876;29;20050;-72
2021/12/13 13:22:16;;;;;;;15.80;3.95;;;;;;;;;;4829652;29;20117;-74
2021/12/13 13:24:46;;;;;;;7.65;2.83;;;;;;;;;;4818865;29;20118;-75
2021/12/13 13:27:13;;;;;;;7.50;3.20;;;;;;;;;;4838310;29;20052;-75
2021/12/13 13:29:40;;;;;;;7.15;2.70;;;;;;;;;;4839564;29;20040;-75
2021/12/13 13:32:10;;;;;;;10.20;3.30;;;;;;;;;;4835378;29;20330;-75
2021/12/13 13:34:43;;;;;;;7.13;4.18;;;;;;;;;;4829161;29;20027;-74
2021/12/13 13:37:12;;;;;;;;;;;;;;;;;;4821207;29;20034;-76
2021/12/13 13:39:42;;;;;;;7.85;4.20;;;;;;;;;;4820650;29;19917;-75
2021/12/13 13:42:17;;;;;;;9.63;5.57;;;;;;;;;;4820913;29;20038;-77
2021/12/13 13:44:48;;;;;;;6.88;4.70;;;;;;;;;;4821326;29;20131;-75
2021/12/13 13:47:24;;;;;;;6.20;3.40;;;;;;;;;;4820924;29;20035;-76
2021/12/13 13:49:50;;;;;;;7.88;4.63;;;;;;;;;;4823786;29;20082;-74
2021/12/13 13:52:23;;;;;;;8.57;5.00;;;;;;;;;;4827753;29;20114;-76
2021/12/13 13:54:56;;;;;;;6.97;3.00;;;;;;;;;;4827268;29;20041;-76
2021/12/13 13:57:27;;;;;;;5.68;3.10;;;;;;;;;;4839882;29;20485;-72
2021/12/13 13:59:54;;;;;;;15.20;7.53;;;;;;;;;;4844280;29;20182;-78
2021/12/13 14:02:30;;;;;;;6.35;3.75;;;;;;;;;;4843867;29;20148;-72
2021/12/13 14:05:01;;;;;;;6.93;4.15;;;;;;;;;;4844360;29;20124;-71
2021/12/13 14:07:28;;;;;;;8.00;3.67;;;;;;;;;;4839238;29;20070;-76
2021/12/13 14:10:03;;;;;;;5.28;3.70;;;;;;;;;;4845541;29;20041;-69
2021/12/13 14:12:35;;;;;;;9.15;3.30;;;;;;;;;;4844160;29;20041;-72
2021/12/13 14:15:07;;;;;;;5.50;3.20;;;;;;;;;;4838221;29;20050;-70
2021/12/13 14:17:41;;;;;;;7.32;3.45;;;;;;;;;;4837249;29;21052;-68
2021/12/13 14:20:19;;;;;;;6.53;3.35;;;;;;;;;;4845937;29;20478;-70
2021/12/13 14:22:47;;;;;;;5.30;3.30;;;;;;;;;;4852449;29;20129;-77
2021/12/13 14:25:28;;;;;;;5.88;3.33;;;;;;;;;;4845281;29;20041;-73
2021/12/13 14:27:54;;;;;;;8.60;3.97;;;;;;;;;;4846120;29;20034;-77
2021/12/13 14:30:28;;;;;;;5.57;3.45;;;;;;;;;;4862160;29;20032;-73
2021/12/13 14:32:55;;;;;;;7.32;4.38;;;;;;;;;;4864180;29;20108;-73
2021/12/13 14:35:33;;;;;;;6.85;4.10;;;;;;;;;;4863737;29;20120;-77
2021/12/13 14:38:10;;;;;;;8.27;4.53;;;;;;;;;;4863392;29;20037;-75
2021/12/13 14:40:52;;;;;;;14.45;4.97;;;;;;;;;;4862835;29;20346;-75
2021/12/13 14:43:29;;;;;;;8.32;4.60;;;;;;;;;;4862008;29;20041;-76
2021/12/13 14:45:57;;;;;;;7.60;4.93;;;;;;;;;;4864257;29;20056;-81
2021/12/13 14:48:27;;;;;;;9.07;5.28;;;;;;;;;;4851425;29;20041;-77
2021/12/13 14:51:02;;;;;;;15.13;5.95;;;;;;;;;;4845271;29;20074;-76
2021/12/13 14:53:33;;;;;;;15.75;4.63;;;;;;;;;;4845211;29;20505;-77
2021/12/13 14:56:28;;;;;;;7.93;3.45;;;;;;;;;;4845736;29;20071;-76
2021/12/13 14:58:59;;;;;;;7.35;3.08;;;;;;;;;;4832783;29;20054;-76
2021/12/13 15:01:31;;;;;;;5.60;3.33;;;;;;;;;;4842275;29;20144;-74
2021/12/13 15:04:14;;;;;;;5.82;2.78;;;;;;;;;;4841502;29;20078;-75
2021/12/13 15:06:54;;;;;;;6.25;3.20;;;;;;;;;;4841015;29;20480;-79
2021/12/13 15:09:36;;;;;;;5.72;3.05;;;;;;;;;;4842290;29;20542;-78
2021/12/13 15:12:07;;;;;;;4.20;2.80;;;;;;;;;;4842793;29;20046;-70
2021/12/13 15:14:56;;;;;;;6.88;3.15;;;;;;;;;;4841619;29;20054;-72
2021/12/13 15:17:32;;;;;;;6.80;4.00;;;;;;;;;;4842052;29;20065;-78
2021/12/13 15:20:16;;;;;;;5.70;3.60;;;;;;;;;;4841940;29;20038;-77
2021/12/13 15:22:46;;;;;;;5.90;3.97;;;;;;;;;;4842421;29;20451;-72
2021/12/13 15:25:19;;;;;;;6.78;3.72;;;;;;;;;;4842141;29;20029;-78
2021/12/13 15:27:45;;;;;;;7.78;4.30;;;;;;;;;;4841171;29;20097;-80
2021/12/13 15:30:16;;;;;;;10.18;4.30;;;;;;;;;;4841481;29;20086;-76
2021/12/13 15:32:47;;;;;;;6.15;4.60;;;;;;;;;;4822152;29;20466;-79
2021/12/13 15:35:15;;;;;;;7.10;5.72;;;;;;;;;;4821512;29;20618;-72
2021/12/13 15:37:50;;;;;;;9.38;4.57;;;;;;;;;;4837734;29;20037;-70
2021/12/13 15:40:20;;;;;;;7.93;4.55;;;;;;;;;;4839880;29;20042;-70